Time;durP1;ratioP1;P1;durP2;ratioP2;P2;SDS_P1;SDS_P2;PMS_P1;PMS_P2;Temp;Humidity;BMP_temperature;BMP_pressure;BME280_temperature;BME280_humidity;BME280_pressure;Samples;Min_cycle;Max_cycle;Signal;HPM_P1;HPM_P2
2022/11/23 00:00:23;;;;;;;;;;;;;;;11.66;54.12;94104.91;5048553;28;20013;-70
2022/11/23 00:02:54;;;;;;;;;;;;;;;11.66;54.63;94102.25;5031450;28;20020;-71
2022/11/23 00:05:20;;;;;;;;;;;;;;;11.68;54.12;94108.03;5049949;28;20012;-71
2022/11/23 00:07:45;;;;;;;;;;;;;;;11.68;54.68;94111.47;5049789;28;20010;-71
2022/11/23 00:10:10;;;;;;;;;;;;;;;11.68;54.63;94113.34;5032384;28;20016;-70
2022/11/23 00:12:35;;;;;;;;;;;;;;;11.65;54.37;94108.69;5048319;28;20006;-71
2022/11/23 00:15:00;;;;;;;;;;;;;;;11.63;55.01;94117.03;5047353;28;20017;-71
2022/11/23 00:17:26;;;;;;;;;;;;;;;11.59;54.98;94115.34;5050054;28;20014;-70
2022/11/23 00:19:51;;;;;;;;;;;;;;;11.60;55.14;94108.91;5032236;28;20010;-71
2022/11/23 00:22:16;;;;;;;;;;;;;;;11.58;55.12;94116.47;5049730;28;20105;-71
2022/11/23 00:24:41;;;;;;;;;;;;;;;11.59;55.20;94113.47;5048085;28;20012;-71
2022/11/23 00:27:06;;;;;;;;;;;;;;;11.57;54.73;94115.69;5049531;28;20014;-70
2022/11/23 00:29:31;;;;;;;;;;;;;;;11.55;54.69;94117.13;5049866;28;20032;-70
2022/11/23 00:31:57;;;;;;;;;;;;;;;11.51;55.35;94116.25;5049852;28;20006;-71
2022/11/23 00:34:22;;;;;;;;;;;;;;;11.50;54.64;94114.69;5049772;28;20044;-70
2022/11/23 00:36:49;;;;;;;;;;;;;;;11.51;55.40;94110.91;5028581;28;20010;-71
2022/11/23 00:39:14;;;;;;;;;;;;;;;11.55;54.90;94111.81;5043841;28;20462;-70
2022/11/23 00:41:40;;;;;;;;;;;;;;;11.52;55.52;94113.25;5046501;28;20010;-71
2022/11/23 00:44:05;;;;;;;;;;;;;;;11.55;54.93;94109.13;5049535;28;20016;-71
2022/11/23 00:46:30;;;;;;;;;;;;;;;11.52;55.24;94115.16;5031688;28;20111;-71
2022/11/23 00:48:56;;;;;;;;;;;;;;;11.56;55.23;94110.69;5048233;28;20025;-70
2022/11/23 00:51:31;;;;;;;;;;;;;;;11.56;55.20;94114.13;5031931;28;20637;-71
2022/11/23 00:53:58;;;;;;;;;;;;;;;11.55;55.02;94111.81;5049782;28;20108;-71
2022/11/23 00:56:23;;;;;;;;;;;;;;;11.53;55.61;94106.81;5049074;28;20017;-71
2022/11/23 00:58:52;;;;;;;;;;;;;;;11.43;55.24;94105.38;5049686;28;20013;-71
2022/11/23 01:01:18;;;;;;;;;;;;;;;11.42;55.21;94103.84;5048453;28;20010;-71
2022/11/23 01:03:45;;;;;;;;;;;;;;;11.33;55.53;94107.72;5031709;28;20010;-71
2022/11/23 01:06:12;;;;;;;;;;;;;;;11.29;55.66;94099.63;5049262;28;20032;-71
2022/11/23 01:08:37;;;;;;;;;;;;;;;11.24;56.05;94110.47;5049595;28;20398;-70
2022/11/23 01:11:03;;;;;;;;;;;;;;;11.15;55.69;94107.16;5031675;28;20016;-71
2022/11/23 01:13:29;;;;;;;;;;;;;;;11.08;55.35;94109.59;5030354;28;20115;-71
2022/11/23 01:15:54;;;;;;;;;;;;;;;11.05;55.69;94113.69;5049053;28;20108;-71
2022/11/23 01:18:19;;;;;;;;;;;;;;;10.99;55.40;94116.91;5049528;28;20010;-68
2022/11/23 01:20:45;;;;;;;;;;;;;;;10.98;56.08;94123.31;5049200;28;20009;-71
2022/11/23 01:23:10;;;;;;;;;;;;;;;11.00;56.21;94129.09;5049527;28;20465;-71
2022/11/23 01:25:35;;;;;;;;;;;;;;;11.02;56.24;94121.56;5047381;28;20103;-70
2022/11/23 01:28:01;;;;;;;;;;;;;;;11.05;55.86;94126.22;5049546;28;20059;-70
2022/11/23 01:30:26;;;;;;;;;;;;;;;11.05;55.89;94124.31;5049433;28;20010;-71
2022/11/23 01:32:51;;;;;;;;;;;;;;;11.02;56.23;94119.69;5049238;28;20054;-70
2022/11/23 01:35:16;;;;;;;;;;;;;;;11.02;56.45;94124.22;5051938;28;20075;-70
2022/11/23 01:37:41;;;;;;;;;;;;;;;11.01;56.45;94128.00;5051166;28;20478;-71
2022/11/23 01:40:07;;;;;;;;;;;;;;;10.96;56.49;94128.22;5052697;28;20504;-70
2022/11/23 01:42:50;;;;;;;;;;;;;;;10.87;56.48;94136.28;5052761;28;20580;-71
2022/11/23 01:45:34;;;;;;;;;;;;;;;10.75;56.45;94131.72;5034520;28;20013;-69
2022/11/23 01:48:00;;;;;;;;;;;;;;;10.56;56.46;94129.56;5051142;28;20014;-69
2022/11/23 01:50:25;;;;;;;;;;;;;;;10.44;57.12;94137.50;5034606;28;20010;-69
2022/11/23 01:52:51;;;;;;;;;;;;;;;10.39;57.23;94140.38;5034376;28;20171;-69
2022/11/23 01:55:16;;;;;;;;;;;;;;;10.38;57.46;94144.09;5052327;28;20110;-70
2022/11/23 01:57:42;;;;;;;;;;;;;;;10.45;57.77;94143.59;5050960;28;20021;-69
2022/11/23 02:00:08;;;;;;;;;;;;;;;10.51;57.50;94150.25;5052664;28;20520;-69
2022/11/23 02:02:33;;;;;;;;;;;;;;;10.56;57.63;94150.81;5052261;28;20048;-69
2022/11/23 02:04:59;;;;;;;;;;;;;;;10.61;57.46;94141.88;5052033;28;20644;-70
2022/11/23 02:07:25;;;;;;;;;;;;;;;10.63;57.04;94151.06;5033133;28;20017;-70
2022/11/23 02:09:50;;;;;;;;;;;;;;;10.67;57.09;94148.53;5034681;28;20009;-69
2022/11/23 02:12:15;;;;;;;;;;;;;;;10.68;57.53;94150.09;5034455;28;20532;-69
2022/11/23 02:14:41;;;;;;;;;;;;;;;10.69;57.78;94148.97;5029077;28;20024;-70
2022/11/23 02:17:06;;;;;;;;;;;;;;;10.67;57.00;94148.53;5034007;28;20099;-70
2022/11/23 02:19:49;;;;;;;;;;;;;;;10.61;56.95;94153.28;5034218;28;20116;-69
2022/11/23 02:22:22;;;;;;;;;;;;;;;10.48;57.48;94146.34;5034312;28;20010;-69
2022/11/23 02:24:51;;;;;;;;;;;;;;;10.37;56.50;94143.31;5049842;28;20021;-70
2022/11/23 02:27:16;;;;;;;;;;;;;;;10.22;56.72;94143.13;5052185;28;20006;-70
2022/11/23 02:29:41;;;;;;;;;;;;;;;10.08;57.20;94140.72;5052146;28;20100;-69
2022/11/23 02:32:07;;;;;;;;;;;;;;;9.94;57.07;94142.88;5034048;28;20010;-70
2022/11/23 02:34:32;;;;;;;;;;;;;;;9.80;57.71;94138.59;5051783;28;20097;-70
2022/11/23 02:36:57;;;;;;;;;;;;;;;9.72;58.31;94146.59;5028817;28;20065;-69
2022/11/23 02:39:27;;;;;;;;;;;;;;;9.66;58.33;94140.69;5012203;28;20010;-70
2022/11/23 02:41:53;;;;;;;;;;;;;;;9.59;57.92;94145.75;5010802;28;20014;-69
2022/11/23 02:44:38;;;;;;;;;;;;;;;9.62;58.46;94145.09;5001343;28;20014;-69
2022/11/23 02:47:03;;;;;;;;;;;;;;;9.52;58.19;94140.94;5031131;28;20022;-69
2022/11/23 02:49:28;;;;;;;;;;;;;;;9.45;58.65;94143.31;5031819;28;20500;-69
2022/11/23 02:51:54;;;;;;;;;;;;;;;9.39;58.51;94133.97;5031734;28;20028;-69
2022/11/23 02:54:19;;;;;;;;;;;;;;;9.32;58.40;94141.69;5033709;28;20011;-69
2022/11/23 02:56:44;;;;;;;;;;;;;;;9.24;58.50;94142.50;5050854;28;20450;-69
2022/11/23 02:59:09;;;;;;;;;;;;;;;9.18;58.71;94141.88;5033528;28;20051;-69
2022/11/23 03:01:36;;;;;;;;;;;;;;;9.09;58.81;94138.50;5030940;28;20104;-68
2022/11/23 03:04:01;;;;;;;;;;;;;;;8.99;58.40;94141.50;5033325;28;20394;-69
2022/11/23 03:06:26;;;;;;;;;;;;;;;8.91;59.29;94137.00;5051087;28;20012;-69
2022/11/23 03:08:51;;;;;;;;;;;;;;;8.86;59.43;94143.25;5051306;28;20002;-69
2022/11/23 03:11:16;;;;;;;;;;;;;;;8.83;59.63;94147.31;5022660;28;20108;-69
2022/11/23 03:13:41;;;;;;;;;;;;;;;8.81;59.70;94154.03;5030939;28;20024;-68
2022/11/23 03:16:07;;;;;;;;;;;;;;;8.79;59.22;94143.72;5030702;28;20378;-69
2022/11/23 03:18:32;;;;;;;;;;;;;;;8.77;59.43;94148.59;5031272;28;20077;-69
2022/11/23 03:21:04;;;;;;;;;;;;;;;8.76;59.62;94147.03;5039005;28;21516;-69
2022/11/23 03:23:30;;;;;;;;;;;;;;;8.71;59.87;94152.50;5050677;28;20005;-69
2022/11/23 03:25:58;;;;;;;;;;;;;;;8.70;59.91;94153.59;5050634;28;20051;-69
2022/11/23 03:28:23;;;;;;;;;;;;;;;8.68;59.99;94152.34;5050969;28;20010;-69
2022/11/23 03:30:49;;;;;;;;;;;;;;;8.38;60.11;94117.78;5048732;28;20477;-69
2022/11/23 03:33:15;;;;;;;;;;;;;;;8.64;60.09;94152.19;5049655;28;20006;-68
2022/11/23 03:35:40;;;;;;;;;;;;;;;8.65;60.14;94151.13;5031518;28;20091;-69
2022/11/23 03:38:05;;;;;;;;;;;;;;;8.64;60.09;94157.50;5032740;28;20010;-69
2022/11/23 03:40:30;;;;;;;;;;;;;;;8.66;60.27;94151.91;5049175;28;20017;-69
2022/11/23 03:42:56;;;;;;;;;;;;;;;8.67;59.89;94146.25;5032253;28;20409;-69
2022/11/23 03:45:21;;;;;;;;;;;;;;;8.66;60.07;94147.38;5032140;28;20017;-68
2022/11/23 03:47:46;;;;;;;;;;;;;;;8.61;59.86;94144.88;5050359;28;20064;-69
2022/11/23 03:50:12;;;;;;;;;;;;;;;8.54;59.70;94139.25;5031221;28;20049;-69
2022/11/23 03:52:37;;;;;;;;;;;;;;;8.50;60.04;94139.13;5050386;28;20059;-68
2022/11/23 03:55:02;;;;;;;;;;;;;;;8.47;60.50;94142.41;5031984;28;20048;-68
2022/11/23 03:57:27;;;;;;;;;;;;;;;8.45;60.24;94138.53;5049522;28;20047;-68
2022/11/23 03:59:52;;;;;;;;;;;;;;;8.46;60.31;94140.84;5050199;28;20102;-69
2022/11/23 04:02:18;;;;;;;;;;;;;;;8.46;60.46;94143.50;5048717;28;20474;-69
2022/11/23 04:04:43;;;;;;;;;;;;;;;8.44;60.02;94137.72;5032123;28;20068;-70
2022/11/23 04:07:08;;;;;;;;;;;;;;;8.39;59.98;94137.88;5049971;28;20009;-68
2022/11/23 04:09:33;;;;;;;;;;;;;;;8.33;59.87;94134.59;5049711;28;20016;-69
2022/11/23 04:11:58;;;;;;;;;;;;;;;8.26;60.34;94134.28;5048716;28;20112;-69
2022/11/23 04:14:24;;;;;;;;;;;;;;;8.20;60.42;94142.72;5031197;28;20017;-69
2022/11/23 04:16:49;;;;;;;;;;;;;;;8.16;60.47;94139.91;5031809;28;20049;-69
2022/11/23 04:19:14;;;;;;;;;;;;;;;8.13;60.76;94140.53;5049893;28;20413;-68
2022/11/23 04:21:39;;;;;;;;;;;;;;;8.15;60.34;94135.72;5046875;28;20009;-68
2022/11/23 04:24:05;;;;;;;;;;;;;;;8.05;60.88;94143.97;5031873;28;20014;-69
2022/11/23 04:26:30;;;;;;;;;;;;;;;8.04;60.93;94137.13;5041249;28;20032;-69
2022/11/23 04:28:55;;;;;;;;;;;;;;;8.03;60.44;94140.84;5047996;28;20014;-69
2022/11/23 04:31:20;;;;;;;;;;;;;;;8.05;61.19;94139.44;5048841;28;20002;-69
2022/11/23 04:33:45;;;;;;;;;;;;;;;8.13;61.49;94137.88;5049650;28;20017;-69
2022/11/23 04:36:10;;;;;;;;;;;;;;;8.24;61.25;94140.97;5031501;28;20029;-69
2022/11/23 04:38:36;;;;;;;;;;;;;;;8.35;61.25;94136.94;5047698;28;20060;-69
2022/11/23 04:41:01;;;;;;;;;;;;;;;8.47;60.86;94138.97;5049877;28;20494;-69
2022/11/23 04:43:27;;;;;;;;;;;;;;;8.58;61.08;94134.91;5049667;28;20104;-69
2022/11/23 04:45:52;;;;;;;;;;;;;;;8.71;60.90;94135.81;5049215;28;20037;-69
2022/11/23 04:48:17;;;;;;;;;;;;;;;8.83;60.50;94131.41;5049701;28;20032;-71
2022/11/23 04:50:43;;;;;;;;;;;;;;;8.98;60.45;94135.41;5048084;28;20017;-69
2022/11/23 04:53:08;;;;;;;;;;;;;;;9.09;60.23;94131.31;5031765;28;20013;-69
2022/11/23 04:55:33;;;;;;;;;;;;;;;9.21;59.64;94127.97;5031370;28;20059;-69
2022/11/23 04:57:58;;;;;;;;;;;;;;;9.31;59.42;94124.94;5047789;28;20067;-70
2022/11/23 05:00:24;;;;;;;;;;;;;;;9.41;59.36;94123.03;5031839;28;20009;-70
2022/11/23 05:02:49;;;;;;;;;;;;;;;9.48;59.07;94124.09;5049462;28;20017;-70
2022/11/23 05:05:14;;;;;;;;;;;;;;;9.55;59.20;94131.56;5049647;28;20006;-70
2022/11/23 05:07:40;;;;;;;;;;;;;;;9.57;58.86;94116.06;5048633;28;20052;-71
2022/11/23 05:10:05;;;;;;;;;;;;;;;9.66;58.30;94121.34;5035732;28;20473;-69
2022/11/23 05:12:31;;;;;;;;;;;;;;;9.69;58.96;94113.50;5053757;28;20013;-70
2022/11/23 05:14:56;;;;;;;;;;;;;;;9.74;58.56;94126.59;5053050;28;20074;-70
2022/11/23 05:17:21;;;;;;;;;;;;;;;9.77;57.93;94120.63;5051870;28;20064;-70
2022/11/23 05:19:46;;;;;;;;;;;;;;;9.81;57.93;94120.75;5053754;28;20476;-70
2022/11/23 05:22:12;;;;;;;;;;;;;;;9.86;58.25;94118.69;5053468;28;20010;-69
2022/11/23 05:24:37;;;;;;;;;;;;;;;9.92;57.62;94119.28;5053212;28;20010;-71
2022/11/23 05:27:02;;;;;;;;;;;;;;;9.64;57.74;94076.53;5021201;28;20097;-70
2022/11/23 05:29:27;;;;;;;;;;;;;;;9.95;58.14;94115.97;5033524;28;20041;-70
2022/11/23 05:31:53;;;;;;;;;;;;;;;9.97;58.12;94113.00;5033310;28;20105;-70
2022/11/23 05:34:18;;;;;;;;;;;;;;;10.01;57.79;94119.22;5033304;28;20378;-70
2022/11/23 05:36:43;;;;;;;;;;;;;;;10.01;57.65;94119.22;5032814;28;20010;-70
2022/11/23 05:39:08;;;;;;;;;;;;;;;10.05;57.21;94117.47;5020092;28;20014;-70
2022/11/23 05:41:34;;;;;;;;;;;;;;;10.07;56.95;94113.38;5030024;28;20018;-70
2022/11/23 05:43:59;;;;;;;;;;;;;;;10.09;57.69;94116.50;5033122;28;20049;-70
2022/11/23 05:46:24;;;;;;;;;;;;;;;10.10;57.06;94112.72;5014688;28;20014;-69
2022/11/23 05:48:49;;;;;;;;;;;;;;;10.08;56.75;94112.28;5033138;28;20040;-70
2022/11/23 05:51:14;;;;;;;;;;;;;;;10.09;56.67;94113.06;5043951;28;20014;-70
2022/11/23 05:53:40;;;;;;;;;;;;;;;10.10;56.68;94115.38;5052796;28;20504;-69
2022/11/23 05:56:05;;;;;;;;;;;;;;;10.11;56.87;94116.16;5052155;28;20014;-70
2022/11/23 05:58:30;;;;;;;;;;;;;;;10.11;56.59;94119.59;5052696;28;20045;-70
2022/11/23 06:00:57;;;;;;;;;;;;;;;10.12;57.47;94117.72;5052491;28;20041;-69
2022/11/23 06:03:22;;;;;;;;;;;;;;;10.11;57.29;94108.97;5050836;28;20010;-70
2022/11/23 06:05:47;;;;;;;;;;;;;;;10.12;57.23;94105.19;5051890;28;20351;-69
2022/11/23 06:08:13;;;;;;;;;;;;;;;9.91;56.92;94075.22;5052628;28;20009;-69
2022/11/23 06:10:38;;;;;;;;;;;;;;;10.06;57.18;94105.72;5052319;28;20012;-69
2022/11/23 06:13:03;;;;;;;;;;;;;;;10.05;56.71;94099.66;5052110;28;20006;-70
2022/11/23 06:15:29;;;;;;;;;;;;;;;10.05;56.79;94104.19;5050192;28;20528;-70
2022/11/23 06:17:57;;;;;;;;;;;;;;;10.07;56.95;94112.59;5052253;28;20698;-70
2022/11/23 06:20:22;;;;;;;;;;;;;;;10.09;57.16;94103.22;5051487;28;20013;-69
2022/11/23 06:22:54;;;;;;;;;;;;;;;10.12;57.09;94107.84;5049687;28;20477;-70
2022/11/23 06:25:20;;;;;;;;;;;;;;;10.14;57.29;94108.34;5051287;28;20052;-70
2022/11/23 06:27:55;;;;;;;;;;;;;;;10.20;56.60;94114.22;5051930;28;20005;-70
2022/11/23 06:30:20;;;;;;;;;;;;;;;10.24;56.42;94104.53;5051851;28;20012;-70
2022/11/23 06:32:46;;;;;;;;;;;;;;;10.25;56.42;94114.06;5049582;28;20497;-70
2022/11/23 06:35:11;;;;;;;;;;;;;;;10.32;56.64;94116.16;5033748;28;20013;-71
2022/11/23 06:37:36;;;;;;;;;;;;;;;10.34;56.94;94112.09;5051888;28;20014;-69
2022/11/23 06:40:01;;;;;;;;;;;;;;;10.37;56.59;94116.75;5051976;28;20005;-70
2022/11/23 06:42:27;;;;;;;;;;;;;;;10.39;56.13;94122.53;5051616;28;20462;-70
2022/11/23 06:44:52;;;;;;;;;;;;;;;10.43;55.94;94112.00;5048523;28;20018;-70
2022/11/23 06:47:17;;;;;;;;;;;;;;;10.48;56.58;94121.66;5050554;28;20021;-70
2022/11/23 06:49:43;;;;;;;;;;;;;;;10.51;56.21;94121.00;5033974;28;20014;-70
2022/11/23 06:52:08;;;;;;;;;;;;;;;10.57;55.98;94119.69;5051357;28;20470;-71
2022/11/23 06:54:33;;;;;;;;;;;;;;;10.60;55.76;94124.38;5051521;28;20006;-70
2022/11/23 06:56:58;;;;;;;;;;;;;;;10.64;55.63;94127.91;5031360;28;20079;-70
2022/11/23 06:59:23;;;;;;;;;;;;;;;10.66;55.41;94126.47;5050447;28;20020;-70
2022/11/23 07:01:49;;;;;;;;;;;;;;;10.68;55.73;94120.81;5033292;28;20039;-70
2022/11/23 07:04:14;;;;;;;;;;;;;;;10.72;55.74;94131.59;5051497;28;20052;-70
2022/11/23 07:06:40;;;;;;;;;;;;;;;10.76;55.58;94133.28;5032752;28;20060;-70
2022/11/23 07:09:06;;;;;;;;;;;;;;;10.82;55.57;94141.81;5049287;28;20013;-70
2022/11/23 07:11:31;;;;;;;;;;;;;;;10.86;55.78;94135.50;5033098;28;20010;-70
2022/11/23 07:13:56;;;;;;;;;;;;;;;10.88;55.57;94140.50;5051057;28;20057;-67
2022/11/23 07:16:21;;;;;;;;;;;;;;;10.93;55.31;94149.03;5050524;28;20492;-68
2022/11/23 07:18:46;;;;;;;;;;;;;;;10.99;55.33;94157.59;5050782;28;20060;-68
2022/11/23 07:21:12;;;;;;;;;;;;;;;11.05;55.69;94144.84;5049145;28;20478;-70
2022/11/23 07:23:39;;;;;;;;;;;;;;;11.08;55.08;94149.50;5032563;28;20017;-70
2022/11/23 07:26:05;;;;;;;;;;;;;;;11.09;54.89;94151.84;5016963;28;20014;-70
2022/11/23 07:28:30;;;;;;;;;;;;;;;11.19;55.04;94155.94;5012845;28;20480;-72
2022/11/23 07:30:55;;;;;;;;;;;;;;;11.24;54.39;94153.06;5047629;28;20040;-70
2022/11/23 07:33:20;;;;;;;;;;;;;;;11.32;54.45;94164.75;5050019;28;20002;-71
2022/11/23 07:35:47;;;;;;;;;;;;;;;11.39;54.49;94165.72;5050319;28;20470;-70
2022/11/23 07:38:12;;;;;;;;;;;;;;;11.50;54.60;94163.41;5050502;28;20017;-70
2022/11/23 07:40:37;;;;;;;;;;;;;;;11.60;54.28;94165.63;5049117;28;20726;-70
2022/11/23 07:43:03;;;;;;;;;;;;;;;11.64;54.37;94150.53;5032418;28;20461;-71
2022/11/23 07:45:29;;;;;;;;;;;;;;;11.83;53.50;94165.22;5050039;28;20112;-71
2022/11/23 07:48:02;;;;;;;;;;;;;;;11.95;52.99;94168.63;5050412;28;20109;-70
2022/11/23 07:50:27;;;;;;;;;;;;;;;12.08;53.03;94169.38;5050468;28;20006;-71
2022/11/23 07:52:53;;;;;;;;;;;;;;;12.22;52.70;94174.34;5048753;28;20765;-71
2022/11/23 07:55:18;;;;;;;;;;;;;;;12.31;52.21;94168.88;5049732;28;20104;-70
2022/11/23 07:57:43;;;;;;;;;;;;;;;12.38;52.00;94179.75;5032237;28;20025;-70
2022/11/23 08:00:09;;;;;;;;;;;;;;;12.46;52.00;94174.28;5048587;28;20009;-71
2022/11/23 08:02:34;;;;;;;;;;;;;;;12.48;52.02;94173.94;5030874;28;20013;-72
2022/11/23 08:04:59;;;;;;;;;;;;;;;12.52;51.79;94182.03;5031918;28;20009;-71
2022/11/23 08:07:24;;;;;;;;;;;;;;;12.48;51.55;94171.25;5050272;28;20040;-71
2022/11/23 08:09:50;;;;;;;;;;;;;;;12.29;51.87;94185.22;5050083;28;20104;-67
2022/11/23 08:12:15;;;;;;;;;;;;;;;12.31;51.94;94184.88;5029590;28;20053;-68
2022/11/23 08:14:40;;;;;;;;;;;;;;;12.20;52.44;94181.91;5017417;28;20017;-69
2022/11/23 08:17:05;;;;;;;;;;;;;;;12.30;52.22;94186.00;5017078;28;20020;-70
2022/11/23 08:19:30;;;;;;;;;;;;;;;12.33;52.57;94185.31;5046106;28;20013;-69
2022/11/23 08:21:56;;;;;;;;;;;;;;;12.36;52.46;94184.66;5040641;28;20010;-69
2022/11/23 08:24:21;;;;;;;;;;;;;;;12.37;52.18;94188.84;5039905;28;20104;-69
2022/11/23 08:26:46;;;;;;;;;;;;;;;12.40;52.02;94186.31;5044891;28;20465;-69
2022/11/23 08:29:11;;;;;;;;;;;;;;;12.44;52.01;94189.84;5025711;28;20525;-68
2022/11/23 08:31:37;;;;;;;;;;;;;;;12.45;52.36;94188.72;5010423;28;20055;-68
2022/11/23 08:34:02;;;;;;;;;;;;;;;12.49;52.31;94183.50;5023784;28;20100;-66
2022/11/23 08:36:27;;;;;;;;;;;;;;;12.60;52.10;94184.56;5007056;28;20010;-68
2022/11/23 08:38:53;;;;;;;;;;;;;;;12.67;52.15;94179.41;5010937;28;20014;-68
2022/11/23 08:41:19;;;;;;;;;;;;;;;12.75;51.70;94185.75;5038442;28;20067;-66
2022/11/23 08:43:48;;;;;;;;;;;;;;;12.88;51.48;94183.78;5012633;28;20037;-67
2022/11/23 08:46:13;;;;;;;;;;;;;;;12.92;51.01;94185.41;5030475;28;20112;-69
2022/11/23 08:48:38;;;;;;;;;;;;;;;12.98;50.84;94178.72;5034392;28;20112;-68
2022/11/23 08:51:04;;;;;;;;;;;;;;;13.03;50.54;94185.69;5016533;28;20524;-68
2022/11/23 08:53:29;;;;;;;;;;;;;;;13.06;50.62;94177.00;5013507;28;20147;-68
2022/11/23 08:55:54;;;;;;;;;;;;;;;13.10;50.23;94183.19;5031984;28;20785;-65
2022/11/23 08:58:19;;;;;;;;;;;;;;;13.16;50.10;94189.09;5014933;28;20014;-67
2022/11/23 09:00:45;;;;;;;;;;;;;;;13.24;49.74;94180.16;5012825;28;20470;-67
2022/11/23 09:03:10;;;;;;;;;;;;;;;13.29;49.93;94189.81;5032203;28;20387;-67
2022/11/23 09:05:36;;;;;;;;;;;;;;;13.29;50.09;94187.13;5032891;28;20009;-68
2022/11/23 09:08:01;;;;;;;;;;;;;;;13.36;49.53;94188.09;5014533;28;20061;-69
2022/11/23 09:10:27;;;;;;;;;;;;;;;13.39;49.66;94182.06;5029942;28;20068;-68
2022/11/23 09:12:52;;;;;;;;;;;;;;;13.34;49.48;94182.31;5021022;28;20095;-67
2022/11/23 09:15:17;;;;;;;;;;;;;;;13.33;49.79;94183.44;5015179;28;20367;-68
2022/11/23 09:17:43;;;;;;;;;;;;;;;13.30;49.40;94178.78;5044006;28;20037;-68
2022/11/23 09:20:09;;;;;;;;;;;;;;;13.22;49.22;94177.06;5035348;28;20016;-68
2022/11/23 09:22:34;;;;;;;;;;;;;;;13.04;49.34;94178.47;5053445;28;20052;-69
2022/11/23 09:24:59;;;;;;;;;;;;;;;12.90;49.63;94170.88;5052667;28;20071;-66
2022/11/23 09:27:24;;;;;;;;;;;;;;;12.74;49.97;94179.63;5053138;28;20001;-67
2022/11/23 09:29:49;;;;;;;;;;;;;;;12.55;50.04;94173.38;5053201;28;20006;-67
2022/11/23 09:32:15;;;;;;;;;;;;;;;12.40;50.47;94170.31;5037842;28;20541;-68
2022/11/23 09:34:40;;;;;;;;;;;;;;;12.36;50.67;94169.41;5015367;28;20479;-68
2022/11/23 09:37:05;;;;;;;;;;;;;;;12.29;50.79;94176.44;5032795;28;20028;-67
2022/11/23 09:39:30;;;;;;;;;;;;;;;12.22;51.35;94180.44;5039710;28;20016;-67
2022/11/23 09:42:04;;;;;;;;;;;;;;;12.18;51.44;94174.25;5053025;28;20048;-67
2022/11/23 09:44:32;;;;;;;;;;;;;;;12.14;51.15;94178.69;5053167;28;20063;-67
2022/11/23 09:47:06;;;;;;;;;;;;;;;12.11;50.70;94179.38;5043505;28;20529;-68
2022/11/23 09:49:40;;;;;;;;;;;;;;;12.12;50.43;94180.13;5033047;28;20049;-67
2022/11/23 09:52:13;;;;;;;;;;;;;;;12.15;50.77;94182.13;5014361;28;20013;-67
2022/11/23 09:54:38;;;;;;;;;;;;;;;12.12;50.62;94174.81;5012779;28;20470;-69
2022/11/23 09:57:04;;;;;;;;;;;;;;;12.12;50.77;94172.13;5042619;28;20078;-67
2022/11/23 09:59:29;;;;;;;;;;;;;;;12.13;50.64;94166.50;5052753;28;20470;-68
2022/11/23 10:01:58;;;;;;;;;;;;;;;12.18;51.03;94168.13;5045175;28;20068;-68
2022/11/23 10:04:23;;;;;;;;;;;;;;;12.22;51.03;94177.78;5032774;28;20017;-70
2022/11/23 10:07:08;;;;;;;;;;;;;;;12.21;50.89;94170.91;5032203;28;20010;-70
2022/11/23 10:09:41;;;;;;;;;;;;;;;12.21;50.56;94170.91;5046946;28;20120;-70
2022/11/23 10:12:25;;;;;;;;;;;;;;;12.23;50.38;94178.56;5034512;28;20389;-69
2022/11/23 10:15:00;;;;;;;;;;;;;;;12.25;49.75;94164.91;5034195;28;20009;-69
2022/11/23 10:17:49;;;;;;;;;;;;;;;12.25;49.84;94163.00;5041611;28;20104;-69
2022/11/23 10:20:33;;;;;;;;;;;;;;;12.32;49.96;94167.75;5014878;28;20529;-70
2022/11/23 10:23:00;;;;;;;;;;;;;;;12.37;49.90;94157.63;5021762;28;20087;-69
2022/11/23 10:25:28;;;;;;;;;;;;;;;12.38;49.57;94158.41;5052058;28;20343;-67
2022/11/23 10:27:57;;;;;;;;;;;;;;;12.30;48.72;94148.66;5034518;28;20041;-68
2022/11/23 10:30:22;;;;;;;;;;;;;;;11.77;48.68;94151.28;5052388;28;20006;-67
2022/11/23 10:32:58;;;;;;;;;;;;;;;11.78;48.87;94147.53;5039241;28;20018;-68
2022/11/23 10:35:27;;;;;;;;;;;;;;;12.21;48.80;94138.91;5031495;28;20041;-69
2022/11/23 10:37:59;;;;;;;;;;;;;;;11.40;48.42;94138.00;5016501;28;20113;-68
2022/11/23 10:40:25;;;;;;;;;;;;;;;12.05;48.14;94132.72;5032037;28;20018;-68
2022/11/23 10:42:53;;;;;;;;;;;;;;;12.29;47.72;94123.91;5031957;28;20010;-68
2022/11/23 10:45:20;;;;;;;;;;;;;;;12.23;46.89;94125.22;5031547;28;20011;-68
2022/11/23 10:47:54;;;;;;;;;;;;;;;11.95;47.51;94128.66;5029959;28;20483;-68
2022/11/23 10:50:19;;;;;;;;;;;;;;;11.69;47.64;94129.00;5012108;28;20017;-68
2022/11/23 10:52:52;;;;;;;;;;;;;;;12.25;47.53;94130.25;4994222;28;20030;-68
2022/11/23 10:55:18;;;;;;;;;;;;;;;12.47;47.51;94127.03;5011525;28;20042;-67
2022/11/23 10:57:44;;;;;;;;;;;;;;;12.60;47.19;94130.44;5012072;28;20398;-68
2022/11/23 11:00:09;;;;;;;;;;;;;;;12.66;46.76;94126.41;5015173;28;20006;-69
2022/11/23 11:02:45;;;;;;;;;;;;;;;12.69;46.58;94129.19;5042750;28;20064;-69
2022/11/23 11:05:28;;;;;;;;;;;;;;;12.71;46.17;94120.81;5031587;28;20005;-69
2022/11/23 11:07:55;;;;;;;;;;;;;;;12.58;46.11;94127.31;5031893;28;20060;-68
2022/11/23 11:10:43;;;;;;;;;;;;;;;12.68;46.19;94127.59;5031674;28;20013;-68
2022/11/23 11:13:26;;;;;;;;;;;;;;;12.71;46.23;94123.50;4995114;28;20013;-69
2022/11/23 11:16:01;;;;;;;;;;;;;;;12.67;46.45;94123.38;5025144;28;20010;-69
2022/11/23 11:18:28;;;;;;;;;;;;;;;12.55;45.61;94120.78;5036629;28;20014;-69
2022/11/23 11:20:58;;;;;;;;;;;;;;;12.62;45.94;94120.19;5013157;28;20424;-68
2022/11/23 11:23:23;;;;;;;;;;;;;;;12.65;45.61;94116.84;5019569;28;20112;-69
2022/11/23 11:25:49;;;;;;;;;;;;;;;12.71;45.57;94118.94;5032709;28;20458;-69
2022/11/23 11:28:20;;;;;;;;;;;;;;;12.81;45.60;94114.97;5051210;28;20006;-69
2022/11/23 11:31:12;;;;;;;;;;;;;;;12.85;45.46;94113.19;5031089;28;20104;-69
2022/11/23 11:33:45;;;;;;;;;;;;;;;12.59;45.19;94076.31;5004375;28;20017;-68
2022/11/23 11:36:14;;;;;;;;;;;;;;;12.90;45.05;94109.50;5030760;28;20006;-69
2022/11/23 11:38:40;;;;;;;;;;;;;;;12.98;45.37;94105.88;5030861;28;20006;-69
2022/11/23 11:41:11;;;;;;;;;;;;;;;13.02;45.19;94110.19;5030744;28;20017;-69
2022/11/23 11:43:46;;;;;;;;;;;;;;;13.02;45.41;94101.41;5034370;28;20006;-69
2022/11/23 11:46:21;;;;;;;;;;;;;;;13.07;44.90;94095.03;5032384;28;20020;-70
2022/11/23 11:48:50;;;;;;;;;;;;;;;13.14;44.87;94095.97;5034749;28;20071;-69
2022/11/23 11:51:15;;;;;;;;;;;;;;;13.23;44.77;94093.94;5030423;28;20382;-69
2022/11/23 11:54:00;;;;;;;;;;;;;;;13.37;44.51;94098.06;5029523;28;20058;-69
2022/11/23 11:56:38;;;;;;;;;;;;;;;13.42;44.30;94087.88;5032328;28;20017;-69
2022/11/23 11:59:03;;;;;;;;;;;;;;;13.43;43.76;94084.09;5032371;28;20525;-69
2022/11/23 12:01:34;;;;;;;;;;;;;;;13.56;43.56;94092.75;5032932;28;20100;-69
2022/11/23 12:04:10;;;;;;;;;;;;;;;13.40;43.40;94087.44;5016097;28;20014;-68
2022/11/23 12:06:42;;;;;;;;;;;;;;;13.52;42.92;94076.66;5023394;28;20520;-69
2022/11/23 12:09:15;;;;;;;;;;;;;;;13.65;43.00;94082.66;5050246;28;20052;-68
2022/11/23 12:11:40;;;;;;;;;;;;;;;13.72;42.75;94082.06;5032369;28;20009;-68
2022/11/23 12:14:10;;;;;;;;;;;;;;;13.77;42.78;94082.56;5032335;28;20060;-69
2022/11/23 12:16:50;;;;;;;;;;;;;;;13.91;43.33;94078.63;5049832;28;20010;-68
2022/11/23 12:19:17;;;;;;;;;;;;;;;14.07;42.28;94071.31;5032304;28;20014;-68
2022/11/23 12:22:01;;;;;;;;;;;;;;;14.19;41.45;94067.75;5027599;28;20406;-69
2022/11/23 12:24:26;;;;;;;;;;;;;;;14.28;40.73;94068.31;5012777;28;20010;-69
2022/11/23 12:27:12;;;;;;;;;;;;;;;14.04;40.40;94072.03;5029699;28;20536;-70
2022/11/23 12:29:44;;;;;;;;;;;;;;;14.29;41.02;94073.31;5031798;28;20010;-70
2022/11/23 12:32:15;;;;;;;;;;;;;;;14.27;41.13;94066.75;4992955;28;20414;-69
2022/11/23 12:34:52;;;;;;;;;;;;;;;14.29;40.83;94062.59;5029576;28;20018;-69
2022/11/23 12:37:20;;;;;;;;;;;;;;;14.13;40.61;94051.22;5049691;28;20485;-70
2022/11/23 12:39:58;;;;;;;;;;;;;;;14.21;39.41;94063.56;5032198;28;20009;-68
2022/11/23 12:42:23;;;;;;;;;;;;;;;14.39;40.01;94066.59;5048491;28;20013;-69
2022/11/23 12:44:57;;;;;;;;;;;;;;;14.21;40.11;94066.25;5031688;28;20096;-69
2022/11/23 12:47:31;;;;;;;;;;;;;;;14.45;40.14;94064.41;5031952;28;20020;-69
2022/11/23 12:50:04;;;;;;;;;;;;;;;14.64;40.29;94061.75;5029652;28;20056;-68